createdAt,value
2022-07-29T00:00:45.480Z,17.68
2022-07-29T00:03:13.424Z,17.64
2022-07-29T00:05:41.976Z,17.59
2022-07-29T00:08:12.608Z,17.56
2022-07-29T00:10:40.951Z,17.46
2022-07-29T00:13:08.826Z,17.56
2022-07-29T00:15:36.735Z,17.51
2022-07-29T00:18:06.273Z,17.52
2022-07-29T00:20:34.248Z,17.43
2022-07-29T00:23:02.247Z,17.38
2022-07-29T00:25:30.055Z,17.32
2022-07-29T00:27:58.854Z,17.35
2022-07-29T00:30:26.685Z,17.29
2022-07-29T00:32:54.596Z,17.34
2022-07-29T00:35:41.293Z,17.23
2022-07-29T00:38:09.202Z,17.31
2022-07-29T00:40:37.035Z,17.25
2022-07-29T00:43:08.073Z,17.32
2022-07-29T00:45:36.539Z,17.25
2022-07-29T00:48:05.814Z,17.15
2022-07-29T00:50:35.784Z,17.18
2022-07-29T00:53:04.869Z,17.13
2022-07-29T00:55:32.847Z,17.08
2022-07-29T00:58:01.402Z,17.16
2022-07-29T01:00:30.815Z,17.13
2022-07-29T01:02:58.726Z,17.13
2022-07-29T01:05:50.088Z,17.12
2022-07-29T01:08:20.666Z,17.19
2022-07-29T01:10:49.022Z,17.19
2022-07-29T01:13:18.733Z,17.21
2022-07-29T01:15:50.008Z,16.96
2022-07-29T01:18:22.543Z,16.70
2022-07-29T01:21:18.447Z,16.86
2022-07-29T01:24:01.560Z,16.85
2022-07-29T01:26:44.927Z,16.73
2022-07-29T01:29:35.998Z,16.80
2022-07-29T01:32:27.343Z,16.81
2022-07-29T01:35:02.007Z,16.82
2022-07-29T01:37:34.268Z,16.75
2022-07-29T01:40:05.761Z,16.71
2022-07-29T01:42:37.882Z,16.65
2022-07-29T01:45:12.960Z,16.62
2022-07-29T01:47:46.264Z,16.67
2022-07-29T01:50:18.317Z,16.42
2022-07-29T01:52:51.936Z,16.55
2022-07-29T01:55:24.465Z,16.41
2022-07-29T01:57:52.349Z,16.31
2022-07-29T02:00:22.578Z,16.39
2022-07-29T02:02:52.787Z,16.31
2022-07-29T02:05:22.693Z,16.33
2022-07-29T02:07:51.953Z,16.26
2022-07-29T02:10:25.969Z,16.38
2022-07-29T02:12:57.686Z,16.18
2022-07-29T02:15:29.213Z,16.15
2022-07-29T02:18:01.924Z,16.17
2022-07-29T02:20:31.042Z,16.11
2022-07-29T02:23:01.762Z,16.06
2022-07-29T02:25:38.180Z,15.86
2022-07-29T02:28:08.311Z,15.87
2022-07-29T02:30:41.313Z,15.83
2022-07-29T02:33:10.804Z,15.75
2022-07-29T02:35:40.707Z,15.52
2022-07-29T02:38:28.280Z,15.81
2022-07-29T02:40:58.860Z,15.69
2022-07-29T02:43:27.867Z,15.88
2022-07-29T02:45:58.908Z,15.84
2022-07-29T02:48:36.647Z,15.92
2022-07-29T02:51:43.408Z,15.85
2022-07-29T02:54:08.871Z,15.80
2022-07-29T02:56:38.644Z,15.67
2022-07-29T02:59:11.186Z,15.80
2022-07-29T03:01:44.597Z,15.72
2022-07-29T03:04:15.421Z,15.54
2022-07-29T03:06:46.851Z,15.49
2022-07-29T03:09:16.000Z,15.51
2022-07-29T03:11:50.017Z,15.35
2022-07-29T03:14:21.238Z,15.34
2022-07-29T03:16:52.013Z,15.35
2022-07-29T03:19:21.217Z,15.35
2022-07-29T03:21:49.580Z,15.30
2022-07-29T03:24:28.265Z,15.32
2022-07-29T03:26:57.546Z,15.44
2022-07-29T03:29:25.942Z,15.41
2022-07-29T03:32:03.704Z,15.55
2022-07-29T03:34:35.322Z,15.46
2022-07-29T03:37:03.204Z,15.53
2022-07-29T03:39:35.280Z,15.59
2022-07-29T03:42:04.099Z,15.66
2022-07-29T03:44:34.737Z,15.56
2022-07-29T03:47:06.319Z,15.62
2022-07-29T03:49:37.940Z,15.69
2022-07-29T03:52:07.597Z,15.83
2022-07-29T03:54:35.738Z,15.66
2022-07-29T03:57:04.976Z,15.66
2022-07-29T03:59:34.907Z,15.83
2022-07-29T04:02:05.485Z,15.77
2022-07-29T04:04:35.515Z,15.87
2022-07-29T04:07:03.359Z,15.73
2022-07-29T04:09:32.083Z,15.82
2022-07-29T04:12:03.234Z,15.81
2022-07-29T04:14:32.826Z,15.87
2022-07-29T04:17:00.925Z,15.78
2022-07-29T04:19:30.405Z,15.76
2022-07-29T04:21:59.886Z,15.75
2022-07-29T04:24:28.031Z,15.87
2022-07-29T04:26:55.894Z,15.89
2022-07-29T04:29:23.709Z,15.86
2022-07-29T04:31:51.593Z,15.77
2022-07-29T04:34:20.015Z,15.84
2022-07-29T04:36:49.635Z,15.68
2022-07-29T04:39:22.798Z,15.63
2022-07-29T04:41:52.571Z,15.75
2022-07-29T04:44:22.787Z,15.76
2022-07-29T04:46:57.033Z,15.57
2022-07-29T04:49:25.043Z,15.54
2022-07-29T04:51:54.360Z,15.51
2022-07-29T04:54:22.277Z,15.43
2022-07-29T04:56:50.211Z,15.33
2022-07-29T04:59:18.064Z,15.35
2022-07-29T05:01:46.055Z,15.47
2022-07-29T05:04:14.190Z,15.52
2022-07-29T05:06:42.342Z,15.43
2022-07-29T05:09:11.595Z,15.32
2022-07-29T05:11:39.372Z,15.36
2022-07-29T05:14:07.223Z,15.17
2022-07-29T05:16:35.559Z,15.35
2022-07-29T05:19:03.497Z,15.33
2022-07-29T05:21:31.494Z,15.16
2022-07-29T05:23:59.406Z,15.23
2022-07-29T05:26:28.652Z,15.27
2022-07-29T05:28:57.173Z,15.37
2022-07-29T05:31:25.172Z,15.43
2022-07-29T05:33:53.021Z,15.43
2022-07-29T05:36:21.007Z,15.40
2022-07-29T05:38:49.206Z,15.45
2022-07-29T05:41:19.958Z,15.48
2022-07-29T05:43:49.502Z,15.42
2022-07-29T05:46:17.450Z,15.40
2022-07-29T05:48:45.581Z,15.47
2022-07-29T05:51:13.625Z,15.61
2022-07-29T05:53:41.485Z,15.56
2022-07-29T05:56:09.598Z,15.64
2022-07-29T05:58:37.788Z,15.56
2022-07-29T06:01:07.129Z,15.60
2022-07-29T06:03:35.678Z,15.61
2022-07-29T06:06:03.588Z,15.62
2022-07-29T06:08:31.507Z,15.60
2022-07-29T06:10:59.352Z,15.52
2022-07-29T06:13:27.355Z,15.63
2022-07-29T06:15:55.329Z,15.55
2022-07-29T06:18:24.984Z,15.58
2022-07-29T06:20:52.937Z,15.73
2022-07-29T06:23:21.615Z,15.60
2022-07-29T06:25:49.519Z,15.51
2022-07-29T06:28:17.417Z,15.76
2022-07-29T06:30:45.297Z,16.08
2022-07-29T06:33:18.865Z,16.20
2022-07-29T06:35:53.399Z,16.21
2022-07-29T06:38:31.231Z,16.08
2022-07-29T06:41:03.280Z,16.19
2022-07-29T06:43:34.866Z,16.23
2022-07-29T06:46:04.095Z,16.25
2022-07-29T06:48:32.779Z,16.40
2022-07-29T06:51:02.748Z,16.45
2022-07-29T06:53:31.405Z,16.55
2022-07-29T06:56:00.261Z,16.62
2022-07-29T06:58:28.860Z,16.62
2022-07-29T07:00:57.020Z,16.55
2022-07-29T07:03:25.007Z,16.35
2022-07-29T07:05:54.732Z,16.56
2022-07-29T07:08:24.855Z,16.72
2022-07-29T07:10:52.907Z,16.91
2022-07-29T07:13:20.949Z,17.07
2022-07-29T07:15:49.476Z,17.15
2022-07-29T07:18:18.181Z,17.17
2022-07-29T07:20:46.691Z,17.44
2022-07-29T07:23:14.542Z,17.58
2022-07-29T07:25:45.456Z,17.56
2022-07-29T07:28:13.359Z,17.69
2022-07-29T07:30:41.910Z,17.73
2022-07-29T07:33:11.138Z,17.85
2022-07-29T07:35:39.076Z,18.12
2022-07-29T07:38:08.624Z,18.06
2022-07-29T07:40:37.135Z,17.76
2022-07-29T07:43:06.558Z,17.95
2022-07-29T07:45:34.803Z,18.18
2022-07-29T07:48:02.816Z,18.18
2022-07-29T07:50:30.778Z,18.24
2022-07-29T07:52:59.770Z,18.32
2022-07-29T07:55:28.411Z,18.27
2022-07-29T07:57:57.074Z,18.33
2022-07-29T08:00:26.581Z,18.43
2022-07-29T08:02:54.591Z,18.47
2022-07-29T08:05:22.643Z,18.40
2022-07-29T08:07:50.834Z,18.43
2022-07-29T08:10:40.991Z,18.47
2022-07-29T08:13:10.153Z,18.47
2022-07-29T08:15:41.699Z,18.02
2022-07-29T08:18:09.814Z,17.98
2022-07-29T08:20:39.389Z,18.26
2022-07-29T08:23:10.479Z,18.34
2022-07-29T08:25:40.236Z,18.66
2022-07-29T08:28:08.441Z,18.68
2022-07-29T08:30:36.400Z,18.67
2022-07-29T08:33:05.745Z,18.50
2022-07-29T08:35:35.545Z,18.77
2022-07-29T08:38:05.558Z,18.83
2022-07-29T08:40:33.582Z,18.72
2022-07-29T08:43:06.583Z,18.82
2022-07-29T08:45:48.228Z,18.92
2022-07-29T08:48:22.786Z,18.78
2022-07-29T08:50:54.707Z,18.96
2022-07-29T08:53:28.263Z,18.95
2022-07-29T08:55:57.437Z,18.65
2022-07-29T08:58:26.635Z,18.82
2022-07-29T09:00:57.946Z,18.38
2022-07-29T09:03:32.601Z,18.47
2022-07-29T09:06:01.035Z,18.61
2022-07-29T09:08:29.793Z,18.29
2022-07-29T09:10:58.286Z,18.27
2022-07-29T09:13:27.123Z,18.47
2022-07-29T09:15:55.278Z,18.09
2022-07-29T09:18:41.410Z,18.24
2022-07-29T09:21:28.589Z,18.20
2022-07-29T09:24:08.678Z,18.35
2022-07-29T09:26:38.465Z,18.21
2022-07-29T09:29:13.755Z,18.26
2022-07-29T09:31:45.012Z,18.12
2022-07-29T09:34:16.971Z,17.91
2022-07-29T09:36:47.932Z,18.00
2022-07-29T09:39:17.806Z,18.22
2022-07-29T09:41:50.911Z,18.02
2022-07-29T09:44:19.365Z,17.81
2022-07-29T09:47:07.075Z,17.85
2022-07-29T09:49:38.289Z,18.01
2022-07-29T09:52:09.921Z,17.86
2022-07-29T09:54:41.547Z,17.88
2022-07-29T09:57:13.504Z,17.98
2022-07-29T09:59:50.536Z,18.03
2022-07-29T10:02:23.795Z,17.94
2022-07-29T10:04:53.749Z,17.83
2022-07-29T10:07:21.831Z,17.87
2022-07-29T10:09:55.433Z,17.98
2022-07-29T10:12:24.519Z,18.06
2022-07-29T10:14:53.246Z,18.13
2022-07-29T10:17:22.922Z,17.95
2022-07-29T10:19:51.653Z,18.07
2022-07-29T10:22:43.565Z,17.95
2022-07-29T10:25:11.402Z,18.09
2022-07-29T10:27:40.171Z,18.14
2022-07-29T10:30:09.585Z,17.85
2022-07-29T10:32:54.260Z,18.02
2022-07-29T10:35:39.410Z,17.97
2022-07-29T10:38:29.945Z,18.00
2022-07-29T10:41:32.436Z,18.17
2022-07-29T10:44:19.122Z,17.89
2022-07-29T10:46:48.350Z,17.84
2022-07-29T10:49:18.301Z,17.99
2022-07-29T10:51:58.150Z,18.06
2022-07-29T10:54:54.874Z,18.14
2022-07-29T10:57:54.127Z,18.17
2022-07-29T11:00:33.918Z,17.90
2022-07-29T11:03:04.844Z,18.09
2022-07-29T11:05:59.800Z,17.99
2022-07-29T11:08:28.973Z,17.91
2022-07-29T11:11:37.707Z,17.92
2022-07-29T11:14:10.199Z,17.85
2022-07-29T11:19:52.832Z,17.84
2022-07-29T11:22:34.971Z,17.81
2022-07-29T11:28:19.564Z,17.72
2022-07-29T11:30:56.246Z,17.83
2022-07-29T11:33:54.470Z,17.87
2022-07-29T11:36:28.054Z,18.06
2022-07-29T11:39:36.232Z,18.25
2022-07-29T11:42:41.968Z,18.39
2022-07-29T11:45:41.397Z,18.24
2022-07-29T11:48:28.912Z,18.62
2022-07-29T11:50:55.569Z,18.66
2022-07-29T11:53:28.951Z,18.59
2022-07-29T11:56:02.784Z,18.85
2022-07-29T11:58:32.549Z,18.79
2022-07-29T12:01:04.731Z,18.83
2022-07-29T12:03:36.957Z,19.05
2022-07-29T12:06:17.588Z,19.01
2022-07-29T12:08:47.343Z,19.14
2022-07-29T12:11:20.900Z,19.39
2022-07-29T12:13:50.016Z,19.25
2022-07-29T12:16:25.911Z,19.29
2022-07-29T12:19:00.163Z,19.64
2022-07-29T12:21:28.712Z,19.72
2022-07-29T12:24:02.085Z,19.91
2022-07-29T12:26:35.723Z,20.03
2022-07-29T12:29:04.502Z,20.00
2022-07-29T12:31:42.711Z,20.16
2022-07-29T12:34:16.079Z,20.49
2022-07-29T12:36:44.952Z,20.38
2022-07-29T12:39:13.679Z,20.79
2022-07-29T12:41:41.593Z,20.91
2022-07-29T12:44:09.760Z,21.38
2022-07-29T12:46:37.912Z,21.73
2022-07-29T12:49:07.918Z,21.83
2022-07-29T12:51:38.826Z,22.25
2022-07-29T12:54:12.264Z,22.61
2022-07-29T12:56:43.708Z,22.63
2022-07-29T12:59:17.976Z,22.55
2022-07-29T13:01:48.001Z,22.81
2022-07-29T13:04:27.540Z,23.06
2022-07-29T13:07:04.901Z,22.97
2022-07-29T13:09:40.476Z,23.23
2022-07-29T13:12:11.150Z,22.86
2022-07-29T13:14:40.640Z,22.71
2022-07-29T13:17:10.293Z,22.71
2022-07-29T13:19:41.364Z,22.69
2022-07-29T13:22:13.466Z,22.78
2022-07-29T13:24:51.961Z,22.82
2022-07-29T13:27:21.203Z,22.87
2022-07-29T13:29:49.770Z,22.94
2022-07-29T13:32:17.843Z,23.09
2022-07-29T13:34:46.982Z,23.25
2022-07-29T13:37:17.855Z,23.28
2022-07-29T13:39:53.169Z,23.64
2022-07-29T13:42:21.509Z,23.23
2022-07-29T13:44:49.731Z,23.23
2022-07-29T13:47:18.071Z,23.38
2022-07-29T13:49:46.026Z,23.32
2022-07-29T13:52:15.137Z,22.56
2022-07-29T13:54:44.624Z,22.73
2022-07-29T13:57:12.778Z,22.86
2022-07-29T13:59:41.331Z,23.12
2022-07-29T14:02:09.540Z,23.23
2022-07-29T14:04:39.465Z,23.02
2022-07-29T14:07:07.829Z,23.45
2022-07-29T14:09:41.118Z,23.59
2022-07-29T14:12:11.642Z,23.58
2022-07-29T14:14:39.700Z,23.71
2022-07-29T14:17:08.375Z,23.72
2022-07-29T14:19:38.842Z,23.69
2022-07-29T14:22:08.565Z,23.81
2022-07-29T14:24:37.485Z,23.76
2022-07-29T14:27:06.205Z,24.06
2022-07-29T14:29:38.257Z,24.70
2022-07-29T14:32:07.430Z,24.68
2022-07-29T14:34:35.653Z,24.77
2022-07-29T14:37:03.961Z,24.81
2022-07-29T14:39:32.185Z,24.97
2022-07-29T14:42:00.905Z,24.91
2022-07-29T14:44:32.324Z,25.04
2022-07-29T14:47:07.638Z,25.44
2022-07-29T14:49:36.608Z,26.08
2022-07-29T14:52:04.957Z,25.81
2022-07-29T14:54:32.842Z,25.86
2022-07-29T14:57:01.252Z,25.76
2022-07-29T14:59:29.399Z,26.13
2022-07-29T15:01:57.569Z,25.73
2022-07-29T15:04:27.136Z,26.12
2022-07-29T15:06:55.065Z,25.11
2022-07-29T15:09:24.177Z,25.47
2022-07-29T15:11:52.032Z,25.79
2022-07-29T15:14:20.125Z,25.88
2022-07-29T15:16:48.370Z,25.96
2022-07-29T15:19:16.492Z,25.77
2022-07-29T15:21:48.582Z,24.98
2022-07-29T15:24:17.430Z,25.40
2022-07-29T15:26:46.024Z,25.63
2022-07-29T15:29:14.452Z,25.65
2022-07-29T15:31:42.716Z,25.83
2022-07-29T15:34:10.785Z,25.94
2022-07-29T15:36:54.302Z,25.63
2022-07-29T15:39:24.219Z,25.79
2022-07-29T15:41:52.775Z,25.98
2022-07-29T15:44:21.269Z,25.73
2022-07-29T15:47:05.134Z,25.86
2022-07-29T15:49:47.243Z,25.61
2022-07-29T15:52:19.050Z,25.33
2022-07-29T15:54:55.852Z,24.67
2022-07-29T15:57:24.529Z,25.09
2022-07-29T15:59:52.566Z,24.99
2022-07-29T16:02:20.692Z,25.10
2022-07-29T16:04:48.708Z,25.04
2022-07-29T16:07:17.020Z,25.17
2022-07-29T16:09:49.382Z,25.11
2022-07-29T16:12:21.970Z,25.08
2022-07-29T16:14:51.212Z,25.11
2022-07-29T16:17:20.182Z,25.07
2022-07-29T16:19:48.378Z,25.12
2022-07-29T16:22:16.588Z,24.98
2022-07-29T16:24:44.580Z,24.81
2022-07-29T16:27:12.523Z,24.82
2022-07-29T16:29:41.848Z,24.68
2022-07-29T16:32:09.803Z,24.74
2022-07-29T16:34:37.697Z,24.48
2022-07-29T16:37:05.876Z,24.55
2022-07-29T16:39:34.133Z,24.49
2022-07-29T16:42:05.021Z,24.35
2022-07-29T16:44:33.670Z,24.10
2022-07-29T16:47:04.302Z,23.89
2022-07-29T16:49:32.232Z,23.95
2022-07-29T16:52:00.098Z,23.90
2022-07-29T16:54:28.937Z,23.89
2022-07-29T16:56:57.307Z,23.89
2022-07-29T16:59:25.450Z,23.90
2022-07-29T17:01:53.425Z,23.87
2022-07-29T17:04:22.948Z,23.67
2022-07-29T17:06:50.992Z,23.69
2022-07-29T17:09:18.917Z,23.57
2022-07-29T17:11:53.111Z,23.68
2022-07-29T17:14:24.050Z,23.54
2022-07-29T17:17:00.177Z,23.54
2022-07-29T17:19:32.170Z,23.38
2022-07-29T17:22:13.066Z,23.48
2022-07-29T17:24:44.021Z,23.44
2022-07-29T17:27:11.964Z,23.33
2022-07-29T17:29:40.159Z,23.22
2022-07-29T17:32:09.092Z,23.23
2022-07-29T17:34:39.030Z,22.84
2022-07-29T17:37:07.926Z,23.03
2022-07-29T17:39:36.168Z,23.11
2022-07-29T17:42:05.074Z,23.10
2022-07-29T17:44:36.292Z,23.02
2022-07-29T17:47:04.847Z,22.80
2022-07-29T17:49:32.823Z,22.84
2022-07-29T17:52:05.896Z,22.83
2022-07-29T17:54:33.817Z,22.87
2022-07-29T17:57:02.128Z,22.77
2022-07-29T17:59:30.187Z,22.82
2022-07-29T18:01:58.117Z,22.71
2022-07-29T18:04:26.067Z,22.78
2022-07-29T18:06:53.965Z,22.82
2022-07-29T18:09:23.267Z,22.66
2022-07-29T18:11:52.726Z,22.69
2022-07-29T18:14:20.651Z,22.65
2022-07-29T18:16:48.606Z,22.69
2022-07-29T18:19:17.036Z,22.67
2022-07-29T18:21:51.829Z,22.65
2022-07-29T18:24:25.599Z,22.43
2022-07-29T18:26:53.833Z,22.45
2022-07-29T18:29:22.278Z,22.47
2022-07-29T18:31:50.321Z,22.29
2022-07-29T18:34:18.282Z,22.23
2022-07-29T18:36:46.793Z,21.94
2022-07-29T18:39:20.246Z,22.15
2022-07-29T18:41:51.392Z,22.06
2022-07-29T18:44:22.635Z,22.16
2022-07-29T18:46:52.116Z,22.13
2022-07-29T18:49:20.569Z,22.05
2022-07-29T18:51:49.155Z,21.99
2022-07-29T18:54:18.377Z,21.93
2022-07-29T18:56:47.144Z,21.84
2022-07-29T18:59:19.743Z,21.80
2022-07-29T19:01:48.581Z,21.71
2022-07-29T19:04:17.121Z,21.50
2022-07-29T19:06:45.129Z,21.48
2022-07-29T19:09:13.079Z,21.44
2022-07-29T19:11:41.693Z,21.31
2022-07-29T19:14:09.615Z,21.11
2022-07-29T19:16:38.863Z,20.95
2022-07-29T19:19:08.607Z,20.94
2022-07-29T19:21:36.491Z,20.73
2022-07-29T19:24:07.757Z,20.65
2022-07-29T19:26:39.319Z,20.55
2022-07-29T19:29:07.318Z,20.43
2022-07-29T19:31:35.276Z,20.23
2022-07-29T19:34:04.648Z,20.00
2022-07-29T19:36:32.524Z,19.73
2022-07-29T19:39:00.661Z,19.61
2022-07-29T19:41:28.684Z,19.37
2022-07-29T19:43:56.611Z,19.26
2022-07-29T19:46:25.551Z,19.16
2022-07-29T19:48:54.080Z,19.05
2022-07-29T19:51:23.934Z,18.91
2022-07-29T19:53:52.446Z,18.81
2022-07-29T19:56:20.290Z,18.55
2022-07-29T19:58:48.401Z,18.40
2022-07-29T20:01:16.703Z,18.38
2022-07-29T20:03:44.808Z,18.43
2022-07-29T20:06:12.707Z,18.18
2022-07-29T20:08:42.060Z,18.03
2022-07-29T20:11:09.889Z,17.87
2022-07-29T20:13:37.878Z,17.82
2022-07-29T20:16:08.254Z,17.79
2022-07-29T20:18:36.241Z,17.53
2022-07-29T20:21:04.897Z,17.58
2022-07-29T20:23:33.431Z,17.34
2022-07-29T20:26:06.103Z,17.50
2022-07-29T20:28:37.174Z,17.23
2022-07-29T20:31:05.101Z,17.27
2022-07-29T20:33:33.092Z,17.21
2022-07-29T20:36:00.924Z,17.15
2022-07-29T20:38:30.627Z,17.01
2022-07-29T20:40:58.808Z,16.89
2022-07-29T20:43:28.173Z,16.87
2022-07-29T20:45:56.143Z,16.94
2022-07-29T20:48:24.155Z,16.90
2022-07-29T20:50:52.952Z,16.82
2022-07-29T20:53:20.997Z,16.80
2022-07-29T20:55:48.956Z,16.68
2022-07-29T20:58:17.287Z,16.76
2022-07-29T21:00:46.666Z,16.65
2022-07-29T21:03:14.702Z,16.67
2022-07-29T21:05:44.030Z,16.57
2022-07-29T21:08:12.425Z,16.59
2022-07-29T21:10:40.328Z,16.55
2022-07-29T21:13:08.153Z,16.47
2022-07-29T21:15:36.389Z,16.48
2022-07-29T21:18:16.060Z,16.31
2022-07-29T21:20:43.959Z,16.38
2022-07-29T21:23:11.757Z,16.33
2022-07-29T21:25:39.619Z,16.23
2022-07-29T21:28:24.584Z,16.12
2022-07-29T21:30:52.503Z,16.06
2022-07-29T21:33:21.894Z,16.06
2022-07-29T21:38:38.867Z,15.88
2022-07-29T21:41:07.257Z,15.83
2022-07-29T21:43:35.175Z,15.68
2022-07-29T21:46:03.040Z,15.71
2022-07-29T21:48:32.300Z,15.67
2022-07-29T21:51:00.362Z,15.64
2022-07-29T21:53:28.200Z,15.50
2022-07-29T21:55:56.057Z,15.47
2022-07-29T21:58:24.870Z,15.65
2022-07-29T22:00:53.960Z,15.50
2022-07-29T22:03:21.992Z,15.57
2022-07-29T22:05:51.221Z,15.53
2022-07-29T22:08:21.095Z,15.48
2022-07-29T22:10:48.903Z,15.62
2022-07-29T22:13:16.771Z,15.72
2022-07-29T22:15:47.169Z,15.56
2022-07-29T22:18:19.489Z,15.68
2022-07-29T22:20:49.317Z,15.56
2022-07-29T22:23:18.635Z,15.74
2022-07-29T22:25:46.539Z,15.80
2022-07-29T22:28:14.446Z,15.68
2022-07-29T22:30:42.441Z,15.78
2022-07-29T22:33:17.982Z,15.88
2022-07-29T22:35:48.958Z,15.88
2022-07-29T22:38:18.838Z,15.87
2022-07-29T22:40:46.972Z,15.84
2022-07-29T22:43:16.941Z,15.90
2022-07-29T22:45:44.854Z,15.88
2022-07-29T22:48:12.895Z,15.85
2022-07-29T22:50:42.025Z,15.89
2022-07-29T22:53:09.903Z,15.84
2022-07-29T22:55:39.117Z,15.75
2022-07-29T22:58:07.065Z,15.78
2022-07-29T23:00:35.032Z,15.70
2022-07-29T23:03:02.847Z,15.70
2022-07-29T23:05:30.808Z,15.70
2022-07-29T23:07:58.646Z,15.87
2022-07-29T23:10:26.653Z,15.79
2022-07-29T23:12:55.953Z,15.81
2022-07-29T23:15:24.094Z,15.71
2022-07-29T23:17:51.953Z,15.67
2022-07-29T23:20:19.840Z,15.88
2022-07-29T23:22:47.651Z,15.89
2022-07-29T23:25:15.636Z,15.64
2022-07-29T23:27:43.483Z,15.61
2022-07-29T23:30:13.573Z,15.70
2022-07-29T23:32:41.439Z,15.79
2022-07-29T23:35:10.791Z,15.70
2022-07-29T23:37:39.173Z,15.83
2022-07-29T23:40:13.632Z,15.67
2022-07-29T23:42:42.909Z,15.66
2022-07-29T23:45:13.382Z,15.78
2022-07-29T23:47:41.449Z,15.60
2022-07-29T23:50:12.483Z,15.64
2022-07-29T23:52:41.965Z,15.59
2022-07-29T23:55:37.704Z,15.45
2022-07-29T23:57:59.182Z,15.35
